createdAt,value
2024-02-29T00:02:03.181Z,13.48
2024-02-29T00:05:07.841Z,12.85
2024-02-29T00:08:10.832Z,13.88
2024-02-29T00:11:13.700Z,14.98
2024-02-29T00:14:16.989Z,14.47
2024-02-29T00:17:21.145Z,14.18
2024-02-29T00:20:24.450Z,14.35
2024-02-29T00:23:27.600Z,15.53
2024-02-29T00:26:30.700Z,15.20
2024-02-29T00:29:33.779Z,14.95
2024-02-29T00:32:36.982Z,15.85
2024-02-29T00:35:42.647Z,14.55
2024-02-29T00:38:49.095Z,15.43
2024-02-29T00:41:53.670Z,15.77
2024-02-29T00:44:56.413Z,16.73
2024-02-29T00:47:59.602Z,17.13
2024-02-29T00:51:02.716Z,17.20
2024-02-29T00:54:05.490Z,16.63
2024-02-29T00:57:08.898Z,17.52
2024-02-29T01:00:13.321Z,17.48
2024-02-29T01:03:16.525Z,17.33
2024-02-29T01:06:19.674Z,18.10
2024-02-29T01:09:28.536Z,18.75
2024-02-29T01:12:32.848Z,17.92
2024-02-29T01:15:35.969Z,18.83
2024-02-29T01:18:39.049Z,20.55
2024-02-29T01:21:43.293Z,19.70
2024-02-29T01:24:46.493Z,20.50
2024-02-29T01:27:49.330Z,20.75
2024-02-29T01:30:52.498Z,21.63
2024-02-29T01:33:55.319Z,22.17
2024-02-29T01:36:58.556Z,23.40
2024-02-29T01:40:01.832Z,22.13
2024-02-29T01:43:05.235Z,23.00
2024-02-29T01:46:15.641Z,22.67
2024-02-29T01:49:19.156Z,25.33
2024-02-29T01:52:24.462Z,24.98
2024-02-29T01:55:27.663Z,25.67
2024-02-29T01:58:33.031Z,25.92
2024-02-29T02:01:36.176Z,28.42
2024-02-29T02:04:39.306Z,26.80
2024-02-29T02:07:45.344Z,28.13
2024-02-29T02:10:48.373Z,27.92
2024-02-29T02:13:51.530Z,27.15
2024-02-29T02:16:54.666Z,27.57
2024-02-29T02:19:59.691Z,26.25
2024-02-29T02:23:02.705Z,27.08
2024-02-29T02:26:05.645Z,27.57
2024-02-29T02:29:08.855Z,28.23
2024-02-29T02:32:12.506Z,26.13
2024-02-29T02:35:15.695Z,27.48
2024-02-29T02:38:18.629Z,26.77
2024-02-29T02:41:23.236Z,28.13
2024-02-29T02:44:26.320Z,29.17
2024-02-29T02:47:29.516Z,27.57
2024-02-29T02:50:32.365Z,28.85
2024-02-29T02:53:35.477Z,27.73
2024-02-29T02:56:38.577Z,28.00
2024-02-29T02:59:41.269Z,28.73
2024-02-29T03:02:44.145Z,27.20
2024-02-29T03:05:46.917Z,27.70
2024-02-29T03:08:49.948Z,27.67
2024-02-29T03:11:53.055Z,28.60
2024-02-29T03:14:56.144Z,27.70
2024-02-29T03:17:59.378Z,27.53
2024-02-29T03:21:04.534Z,27.85
2024-02-29T03:24:07.717Z,27.90
2024-02-29T03:27:12.371Z,29.80
2024-02-29T03:30:16.247Z,29.25
2024-02-29T03:33:19.505Z,30.02
2024-02-29T03:36:22.525Z,28.70
2024-02-29T03:39:25.584Z,29.05
2024-02-29T03:42:28.634Z,28.50
2024-02-29T03:45:51.146Z,30.20
2024-02-29T03:48:54.330Z,28.50
2024-02-29T03:51:57.265Z,29.20
2024-02-29T03:55:00.410Z,27.27
2024-02-29T03:58:04.217Z,28.67
2024-02-29T04:01:11.983Z,28.38
2024-02-29T04:04:14.989Z,27.48
2024-02-29T04:07:17.777Z,29.92
2024-02-29T04:10:20.962Z,31.40
2024-02-29T04:13:23.946Z,31.40
2024-02-29T04:16:26.918Z,31.65
2024-02-29T04:19:30.002Z,29.47
2024-02-29T04:22:33.080Z,30.33
2024-02-29T04:25:36.093Z,30.08
2024-02-29T04:28:39.100Z,32.03
2024-02-29T04:31:48.395Z,34.88
2024-02-29T04:34:51.332Z,33.97
2024-02-29T04:37:54.403Z,34.22
2024-02-29T04:40:57.217Z,35.63
2024-02-29T04:44:00.280Z,36.75
2024-02-29T04:47:03.230Z,34.97
2024-02-29T04:50:06.269Z,33.47
2024-02-29T04:53:09.380Z,34.42
2024-02-29T04:56:12.287Z,34.63
2024-02-29T04:59:15.463Z,34.40
2024-02-29T05:02:18.381Z,33.47
2024-02-29T05:05:22.108Z,33.45
2024-02-29T05:08:24.878Z,34.13
2024-02-29T05:11:27.990Z,35.45
2024-02-29T05:14:31.749Z,36.75
2024-02-29T05:17:34.528Z,35.92
2024-02-29T05:20:37.545Z,36.67
2024-02-29T05:23:40.829Z,35.38
2024-02-29T05:26:43.569Z,36.35
2024-02-29T05:29:46.325Z,35.17
2024-02-29T05:32:52.157Z,36.95
2024-02-29T05:35:54.989Z,38.92
2024-02-29T05:38:58.041Z,41.88
2024-02-29T05:42:00.838Z,39.22
2024-02-29T05:45:07.373Z,39.45
2024-02-29T05:48:10.589Z,37.85
2024-02-29T05:51:14.545Z,36.53
2024-02-29T05:54:17.514Z,34.90
2024-02-29T05:57:21.234Z,35.50
2024-02-29T06:00:24.052Z,36.33
2024-02-29T06:03:27.569Z,37.30
2024-02-29T06:06:30.418Z,42.78
2024-02-29T06:09:33.283Z,49.85
2024-02-29T06:12:36.624Z,49.17
2024-02-29T06:15:39.646Z,38.25
2024-02-29T06:18:43.558Z,32.30
2024-02-29T06:21:46.373Z,38.10
2024-02-29T06:24:51.119Z,37.25
2024-02-29T06:27:54.241Z,35.95
2024-02-29T06:30:57.424Z,34.50
2024-02-29T06:34:00.279Z,34.45
2024-02-29T06:37:03.821Z,33.92
2024-02-29T06:40:12.781Z,31.15
2024-02-29T06:43:16.303Z,31.35
2024-02-29T06:46:19.294Z,30.55
2024-02-29T06:49:24.291Z,29.42
2024-02-29T06:52:28.286Z,28.90
2024-02-29T06:55:30.998Z,28.33
2024-02-29T06:58:35.789Z,29.08
2024-02-29T07:01:39.230Z,30.53
2024-02-29T07:04:42.389Z,36.40
2024-02-29T07:07:46.205Z,31.35
2024-02-29T07:10:50.081Z,29.13
2024-02-29T07:13:53.221Z,28.13
2024-02-29T07:16:56.046Z,25.75
2024-02-29T07:20:00.054Z,24.88
2024-02-29T07:23:03.621Z,26.30
2024-02-29T07:26:06.769Z,25.73
2024-02-29T07:29:09.605Z,25.83
2024-02-29T07:32:12.444Z,24.45
2024-02-29T07:35:19.305Z,26.63
2024-02-29T07:38:22.099Z,23.42
2024-02-29T07:41:25.040Z,23.70
2024-02-29T07:44:28.866Z,26.83
2024-02-29T07:47:31.750Z,26.15
2024-02-29T07:50:34.900Z,25.95
2024-02-29T07:53:38.964Z,27.23
2024-02-29T07:56:44.369Z,25.38
2024-02-29T07:59:48.017Z,27.20
2024-02-29T08:02:55.565Z,27.48
2024-02-29T08:05:59.482Z,26.63
2024-02-29T08:09:09.473Z,26.02
2024-02-29T08:12:14.014Z,25.75
2024-02-29T08:15:18.879Z,26.17
2024-02-29T08:18:22.084Z,24.90
2024-02-29T08:21:25.240Z,27.20
2024-02-29T08:24:28.154Z,26.30
2024-02-29T08:27:32.238Z,25.10
2024-02-29T08:30:37.978Z,25.33
2024-02-29T08:33:41.123Z,25.30
2024-02-29T08:36:45.069Z,25.53
2024-02-29T08:39:49.105Z,24.87
2024-02-29T08:42:53.277Z,26.30
2024-02-29T08:45:57.298Z,22.92
2024-02-29T08:49:03.684Z,23.13
2024-02-29T08:52:09.454Z,23.27
2024-02-29T08:55:12.888Z,23.35
2024-02-29T08:58:16.040Z,21.85
2024-02-29T09:01:21.079Z,20.65
2024-02-29T09:04:25.371Z,18.57
2024-02-29T09:07:31.681Z,17.58
2024-02-29T09:10:35.523Z,20.15
2024-02-29T09:13:38.575Z,20.20
2024-02-29T09:16:41.560Z,19.38
2024-02-29T09:19:44.356Z,19.70
2024-02-29T09:22:47.639Z,21.15
2024-02-29T09:25:51.151Z,20.45
2024-02-29T09:28:54.082Z,18.50
2024-02-29T09:31:56.807Z,20.17
2024-02-29T09:34:59.634Z,20.87
2024-02-29T09:38:02.698Z,19.15
2024-02-29T09:41:18.151Z,20.95
2024-02-29T09:44:28.738Z,19.67
2024-02-29T09:47:33.664Z,18.80
2024-02-29T09:50:36.580Z,17.67
2024-02-29T09:53:40.001Z,17.15
2024-02-29T09:56:43.133Z,18.17
2024-02-29T09:59:46.595Z,16.77
2024-02-29T10:02:54.546Z,18.50
2024-02-29T10:06:00.951Z,19.07
2024-02-29T10:09:04.155Z,16.38
2024-02-29T10:12:08.785Z,14.65
2024-02-29T10:15:11.992Z,16.13
2024-02-29T10:18:15.140Z,15.47
2024-02-29T10:21:18.101Z,16.07
2024-02-29T10:24:23.388Z,15.70
2024-02-29T10:27:26.436Z,15.93
2024-02-29T10:30:29.375Z,14.70
2024-02-29T10:33:34.495Z,16.03
2024-02-29T10:36:37.549Z,15.23
2024-02-29T10:39:41.945Z,15.80
2024-02-29T10:42:48.766Z,15.75
2024-02-29T10:45:52.225Z,15.52
2024-02-29T10:49:08.513Z,16.73
2024-02-29T10:52:27.984Z,17.53
2024-02-29T10:55:35.340Z,15.77
2024-02-29T10:58:43.590Z,16.13
2024-02-29T11:01:48.153Z,16.30
2024-02-29T11:04:51.898Z,14.87
2024-02-29T11:07:55.699Z,16.05
2024-02-29T11:11:00.485Z,16.33
2024-02-29T11:14:07.416Z,16.75
2024-02-29T11:17:14.589Z,15.00
2024-02-29T11:20:24.545Z,14.73
2024-02-29T11:23:40.468Z,16.15
2024-02-29T11:26:44.469Z,13.73
2024-02-29T11:29:49.458Z,14.43
2024-02-29T11:32:53.575Z,13.98
2024-02-29T11:35:57.612Z,13.63
2024-02-29T11:39:01.448Z,12.98
2024-02-29T11:42:06.071Z,14.67
2024-02-29T11:45:18.935Z,12.60
2024-02-29T11:48:21.731Z,13.82
2024-02-29T11:51:25.068Z,13.25
2024-02-29T11:54:27.944Z,14.10
2024-02-29T11:57:30.792Z,13.95
2024-02-29T12:00:33.635Z,14.55
2024-02-29T12:03:36.507Z,13.13
2024-02-29T12:06:45.510Z,13.48
2024-02-29T12:09:48.816Z,14.57
2024-02-29T12:12:52.036Z,14.40
2024-02-29T12:15:56.246Z,13.27
2024-02-29T12:18:59.249Z,14.60
2024-02-29T12:22:02.101Z,14.57
2024-02-29T12:25:14.676Z,14.00
2024-02-29T12:28:19.112Z,13.60
2024-02-29T12:31:22.816Z,13.98
2024-02-29T12:34:27.845Z,13.35
2024-02-29T12:37:30.840Z,15.40
2024-02-29T12:40:34.630Z,13.63
2024-02-29T12:43:41.085Z,14.27
2024-02-29T12:46:43.872Z,14.40
2024-02-29T12:49:46.751Z,14.25
2024-02-29T12:52:55.685Z,14.53
2024-02-29T12:55:58.875Z,14.10
2024-02-29T12:59:02.011Z,14.13
2024-02-29T13:02:05.145Z,14.70
2024-02-29T13:05:08.224Z,14.07
2024-02-29T13:08:11.443Z,14.83
2024-02-29T13:11:14.292Z,14.07
2024-02-29T13:14:17.123Z,16.08
2024-02-29T13:17:19.995Z,15.30
2024-02-29T13:20:23.040Z,14.40
2024-02-29T13:23:26.156Z,14.63
2024-02-29T13:26:28.938Z,14.32
2024-02-29T13:29:34.067Z,17.42
2024-02-29T13:32:37.286Z,20.73
2024-02-29T13:35:40.377Z,18.17
2024-02-29T13:38:44.340Z,14.20
2024-02-29T13:41:47.696Z,15.05
2024-02-29T13:44:50.808Z,15.13
2024-02-29T13:47:54.001Z,15.90
2024-02-29T13:50:57.177Z,15.02
2024-02-29T13:53:59.934Z,14.30
2024-02-29T13:57:02.871Z,14.43
2024-02-29T14:00:07.507Z,15.27
2024-02-29T14:03:15.796Z,14.13
2024-02-29T14:06:20.147Z,15.82
2024-02-29T14:09:23.142Z,15.10
2024-02-29T14:12:26.682Z,14.67
2024-02-29T14:15:29.698Z,16.57
2024-02-29T14:18:34.611Z,14.80
2024-02-29T14:21:38.105Z,14.93
2024-02-29T14:24:41.214Z,15.38
2024-02-29T14:27:44.617Z,13.20
2024-02-29T14:30:47.517Z,14.52
2024-02-29T14:33:51.780Z,14.77
2024-02-29T14:36:55.159Z,13.23
2024-02-29T14:39:57.961Z,14.57
2024-02-29T14:43:01.148Z,13.80
2024-02-29T14:46:04.520Z,14.68
2024-02-29T14:49:07.438Z,15.38
2024-02-29T14:52:10.290Z,14.55
2024-02-29T14:55:14.548Z,15.27
2024-02-29T14:58:17.822Z,14.10
2024-02-29T15:01:22.986Z,13.75
2024-02-29T15:04:25.969Z,14.60
2024-02-29T15:07:28.889Z,13.13
2024-02-29T15:10:31.689Z,13.90
2024-02-29T15:13:34.528Z,14.75
2024-02-29T15:16:37.405Z,13.80
2024-02-29T15:19:42.208Z,13.40
2024-02-29T15:22:46.274Z,14.15
2024-02-29T15:25:49.505Z,14.30
2024-02-29T15:28:53.269Z,16.52
2024-02-29T15:31:56.398Z,13.73
2024-02-29T15:34:59.461Z,13.70
2024-02-29T15:38:02.281Z,14.32
2024-02-29T15:41:05.293Z,13.73
2024-02-29T15:44:08.279Z,14.67
2024-02-29T15:47:11.041Z,13.65
2024-02-29T15:50:13.932Z,13.65
2024-02-29T15:53:16.786Z,13.50
2024-02-29T15:56:19.650Z,15.25
2024-02-29T15:59:22.535Z,15.02
2024-02-29T16:02:25.477Z,15.15
2024-02-29T16:05:29.031Z,15.60
2024-02-29T16:08:32.173Z,14.25
2024-02-29T16:11:35.338Z,14.90
2024-02-29T16:14:38.459Z,14.65
2024-02-29T16:17:41.367Z,15.47
2024-02-29T16:20:44.246Z,13.18
2024-02-29T16:23:47.027Z,13.50
2024-02-29T16:26:53.650Z,14.83
2024-02-29T16:29:56.400Z,15.98
2024-02-29T16:32:59.269Z,19.08
2024-02-29T16:36:02.190Z,16.55
2024-02-29T16:39:06.972Z,18.42
2024-02-29T16:42:10.740Z,20.27
2024-02-29T16:45:13.584Z,21.85
2024-02-29T16:48:17.052Z,22.27
2024-02-29T16:51:20.522Z,23.08
2024-02-29T16:54:23.307Z,34.40
2024-02-29T16:57:26.213Z,41.80
2024-02-29T17:00:30.269Z,42.80
2024-02-29T17:03:33.089Z,42.42
2024-02-29T17:06:36.819Z,45.90
2024-02-29T17:09:40.304Z,52.50
2024-02-29T17:12:43.435Z,52.33
2024-02-29T17:15:46.548Z,54.85
2024-02-29T17:18:49.703Z,56.73
2024-02-29T17:21:52.612Z,61.30
2024-02-29T17:24:56.231Z,60.72
2024-02-29T17:27:59.473Z,64.38
2024-02-29T17:31:04.159Z,67.00
2024-02-29T17:34:07.018Z,80.95
2024-02-29T17:37:10.191Z,89.35
2024-02-29T17:40:13.528Z,86.07
2024-02-29T17:43:18.523Z,100.22
2024-02-29T17:46:21.648Z,100.72
2024-02-29T17:49:25.313Z,103.93
2024-02-29T17:52:28.719Z,109.00
2024-02-29T17:55:31.603Z,103.78
2024-02-29T17:58:34.594Z,106.55
2024-02-29T18:01:37.889Z,104.60
2024-02-29T18:04:41.435Z,102.63
2024-02-29T18:07:51.053Z,91.60
2024-02-29T18:11:01.756Z,63.27
2024-02-29T18:14:04.907Z,67.45
2024-02-29T18:17:07.709Z,67.90
2024-02-29T18:20:15.676Z,72.77
2024-02-29T18:23:18.916Z,68.70
2024-02-29T18:26:22.806Z,106.47
2024-02-29T18:29:27.434Z,120.65
2024-02-29T18:32:30.478Z,114.28
2024-02-29T18:35:33.282Z,136.68
2024-02-29T18:38:36.390Z,206.20
2024-02-29T18:41:39.792Z,194.90
2024-02-29T18:44:42.736Z,207.07
2024-02-29T18:47:46.040Z,167.38
2024-02-29T18:50:48.919Z,166.20
2024-02-29T18:53:51.622Z,149.38
2024-02-29T18:56:55.126Z,130.25
2024-02-29T18:59:58.176Z,109.18
2024-02-29T19:03:00.962Z,108.03
2024-02-29T19:06:03.973Z,86.90
2024-02-29T19:09:07.734Z,61.85
2024-02-29T19:12:12.089Z,51.33
2024-02-29T19:15:15.173Z,56.63
2024-02-29T19:18:18.093Z,66.78
2024-02-29T19:21:20.962Z,67.83
2024-02-29T19:24:23.725Z,61.38
2024-02-29T19:27:26.768Z,57.22
2024-02-29T19:30:29.837Z,48.33
2024-02-29T19:33:32.901Z,49.67
2024-02-29T19:36:36.262Z,46.00
2024-02-29T19:39:48.070Z,37.80
2024-02-29T19:42:51.472Z,34.90
2024-02-29T19:45:54.687Z,35.58
2024-02-29T19:48:57.719Z,32.42
2024-02-29T19:52:00.685Z,33.83
2024-02-29T19:55:06.592Z,32.53
2024-02-29T19:58:10.741Z,32.78
2024-02-29T20:01:14.276Z,29.55
2024-02-29T20:04:20.245Z,25.02
2024-02-29T20:07:25.617Z,25.52
2024-02-29T20:10:28.557Z,30.33
2024-02-29T20:13:31.794Z,30.70
2024-02-29T20:16:35.041Z,33.67
2024-02-29T20:19:38.812Z,33.58
2024-02-29T20:22:41.782Z,32.37
2024-02-29T20:25:44.990Z,31.52
2024-02-29T20:28:47.762Z,29.10
2024-02-29T20:31:52.749Z,25.65
2024-02-29T20:34:55.955Z,23.08
2024-02-29T20:37:59.840Z,23.13
2024-02-29T20:41:04.686Z,24.13
2024-02-29T20:44:10.385Z,26.73
2024-02-29T20:47:13.238Z,28.92
2024-02-29T20:50:16.285Z,29.27
2024-02-29T20:53:19.274Z,29.07
2024-02-29T20:56:22.924Z,28.85
2024-02-29T20:59:28.230Z,31.20
2024-02-29T21:02:31.753Z,31.17
2024-02-29T21:05:34.776Z,40.20
2024-02-29T21:08:38.897Z,39.25
2024-02-29T21:11:42.944Z,32.33
2024-02-29T21:14:46.011Z,24.50
2024-02-29T21:17:51.514Z,24.00
2024-02-29T21:20:54.684Z,21.90
2024-02-29T21:23:57.811Z,20.73
2024-02-29T21:27:00.695Z,20.65
2024-02-29T21:30:06.747Z,20.45
2024-02-29T21:33:10.225Z,18.85
2024-02-29T21:36:13.298Z,18.63
2024-02-29T21:39:19.337Z,20.38
2024-02-29T21:42:27.613Z,19.25
2024-02-29T21:45:30.845Z,18.03
2024-02-29T21:48:33.984Z,19.27
2024-02-29T21:51:36.963Z,19.60
2024-02-29T21:54:40.358Z,20.30
2024-02-29T21:57:43.414Z,20.15
2024-02-29T22:00:46.545Z,21.05
2024-02-29T22:03:49.389Z,22.90
2024-02-29T22:06:52.633Z,24.20
2024-02-29T22:09:55.865Z,23.88
2024-02-29T22:12:58.937Z,22.50
2024-02-29T22:16:02.098Z,21.80
2024-02-29T22:19:04.957Z,21.83
2024-02-29T22:22:08.141Z,23.50
2024-02-29T22:25:10.924Z,22.53
2024-02-29T22:28:13.802Z,19.13
2024-02-29T22:31:16.689Z,18.65
2024-02-29T22:34:19.903Z,19.80
2024-02-29T22:37:23.577Z,18.85
2024-02-29T22:40:26.691Z,19.92
2024-02-29T22:43:29.923Z,19.92
2024-02-29T22:46:33.218Z,19.13
2024-02-29T22:49:35.991Z,20.85
2024-02-29T22:52:38.934Z,18.40
2024-02-29T22:55:41.932Z,20.33
2024-02-29T22:58:44.736Z,19.92
2024-02-29T23:01:47.697Z,18.77
2024-02-29T23:04:50.825Z,19.90
2024-02-29T23:07:54.071Z,19.27
2024-02-29T23:10:57.183Z,20.00
2024-02-29T23:14:00.591Z,25.63
2024-02-29T23:17:03.463Z,23.47
2024-02-29T23:20:07.240Z,21.13
2024-02-29T23:23:10.401Z,21.30
2024-02-29T23:26:13.414Z,18.97
2024-02-29T23:29:16.442Z,19.55
2024-02-29T23:32:19.541Z,18.88
2024-02-29T23:35:22.424Z,18.92
2024-02-29T23:38:25.618Z,18.35
2024-02-29T23:41:28.750Z,17.80
2024-02-29T23:44:31.923Z,19.70
2024-02-29T23:47:34.734Z,19.23
2024-02-29T23:50:38.371Z,18.35
2024-02-29T23:53:41.550Z,18.75
2024-02-29T23:56:44.297Z,20.63
2024-02-29T23:59:47.413Z,21.05
